Time;durP1;ratioP1;P1;durP2;ratioP2;P2;SDS_P1;SDS_P2;PMS_P1;PMS_P2;Temp;Humidity;BMP_temperature;BMP_pressure;BME280_temperature;BME280_humidity;BME280_pressure;Samples;Min_cycle;Max_cycle;Signal;HPM_P1;HPM_P2
2023/07/23 00:00:36;;;;;;;11.40;9.40;;;;;;;15.79;93.52;100465.23;106183;1261;73459;-76
2023/07/23 00:03:03;;;;;;;12.10;9.00;;;;;;;15.73;93.71;100460.27;106309;1262;72223;-76
2023/07/23 00:05:30;;;;;;;12.10;9.20;;;;;;;15.74;94.04;100453.94;105898;1258;71371;-75
2023/07/23 00:07:59;;;;;;;9.90;8.60;;;;;;;15.71;94.42;100445.08;106058;1260;62582;-75
2023/07/23 00:10:26;;;;;;;11.50;9.40;;;;;;;15.69;94.70;100444.44;106226;1257;61219;-75
2023/07/23 00:12:53;;;;;;;10.90;8.90;;;;;;;15.67;95.01;100440.73;106069;1257;75121;-75
2023/07/23 00:15:20;;;;;;;12.30;9.40;;;;;;;15.66;95.12;100437.58;106233;1260;70230;-75
2023/07/23 00:17:47;;;;;;;11.90;9.00;;;;;;;15.64;95.16;100436.47;106199;1256;71530;-75
2023/07/23 00:20:15;;;;;;;11.20;9.20;;;;;;;15.62;95.40;100428.92;106214;1257;61335;-73
2023/07/23 00:22:42;;;;;;;10.70;9.00;;;;;;;15.61;95.64;100424.20;106212;1256;61215;-74
2023/07/23 00:25:09;;;;;;;12.90;9.40;;;;;;;15.59;95.98;100424.67;105902;1260;73606;-74
2023/07/23 00:27:36;;;;;;;12.30;8.90;;;;;;;15.57;96.19;100419.36;106096;1260;70001;-74
2023/07/23 00:30:03;;;;;;;13.10;9.60;;;;;;;15.56;96.39;100417.77;106384;1260;72730;-74
2023/07/23 00:32:31;;;;;;;12.10;9.40;;;;;;;15.53;96.45;100416.15;106347;1258;61260;-75
2023/07/23 00:34:57;;;;;;;11.60;9.20;;;;;;;15.52;96.65;100409.94;106098;1257;61902;-74
2023/07/23 00:37:27;;;;;;;12.40;9.10;;;;;;;15.49;96.77;100410.73;106317;1258;73457;-75
2023/07/23 00:39:53;;;;;;;11.80;9.00;;;;;;;15.47;96.96;100413.90;106518;1257;69801;-74
2023/07/23 00:42:20;;;;;;;12.10;9.20;;;;;;;15.44;97.09;100406.73;106214;1260;72913;-74
2023/07/23 00:44:47;;;;;;;12.20;9.20;;;;;;;15.39;97.27;100404.85;106274;1257;61330;-74
2023/07/23 00:47:16;;;;;;;12.00;9.10;;;;;;;15.35;97.64;100398.09;106118;1259;61203;-74
2023/07/23 00:49:43;;;;;;;12.60;9.50;;;;;;;15.33;98.09;100400.95;106115;1257;73466;-75
2023/07/23 00:52:11;;;;;;;14.20;9.20;;;;;;;15.31;98.21;100393.02;106274;1257;69543;-74
2023/07/23 00:54:38;;;;;;;11.60;8.70;;;;;;;15.29;98.52;100390.12;106614;1256;71829;-74
2023/07/23 00:57:06;;;;;;;11.50;8.90;;;;;;;15.27;98.71;100386.68;106181;1257;61308;-74
2023/07/23 00:59:33;;;;;;;13.60;9.40;;;;;;;15.24;98.71;100379.69;106478;1257;61546;-74
2023/07/23 01:02:00;;;;;;;13.30;9.20;;;;;;;15.22;98.78;100373.22;106911;1262;74531;-75
2023/07/23 01:04:27;;;;;;;12.70;9.70;;;;;;;15.21;98.92;100364.01;108168;1263;71941;-75
2023/07/23 01:06:56;;;;;;;13.40;9.10;;;;;;;15.21;98.92;100358.66;107040;1256;71838;-75
2023/07/23 01:09:24;;;;;;;12.60;9.20;;;;;;;15.20;99.07;100357.15;107570;1262;61028;-74
2023/07/23 01:11:52;;;;;;;11.60;9.00;;;;;;;15.21;99.23;100355.66;106130;1262;61356;-75
2023/07/23 01:14:19;;;;;;;10.40;9.00;;;;;;;15.20;99.18;100352.14;106148;1257;74073;-75
2023/07/23 01:16:47;;;;;;;12.70;9.00;;;;;;;15.20;99.21;100351.60;106435;1257;71163;-75
2023/07/23 01:19:14;;;;;;;12.00;9.10;;;;;;;15.20;99.18;100346.84;106179;1257;72715;-74
2023/07/23 01:21:41;;;;;;;14.10;9.10;;;;;;;15.19;99.22;100349.63;106896;1257;61308;-75
2023/07/23 01:24:08;;;;;;;14.20;9.70;;;;;;;15.19;99.27;100344.86;107612;1256;59631;-74
2023/07/23 01:26:36;;;;;;;14.00;9.80;;;;;;;15.19;99.40;100342.89;107450;1256;73602;-75
2023/07/23 01:29:03;;;;;;;12.60;9.60;;;;;;;15.19;99.38;100337.88;106255;1257;71762;-74
2023/07/23 01:31:30;;;;;;;12.80;9.70;;;;;;;15.20;99.63;100336.56;106160;1260;71919;-74
2023/07/23 01:34:04;;;;;;;12.80;10.00;;;;;;;15.20;99.63;100335.78;106293;1256;61768;-74
2023/07/23 01:36:31;;;;;;;14.10;10.60;;;;;;;15.20;99.84;100334.91;106305;1258;61273;-74
2023/07/23 01:38:58;;;;;;;14.70;10.60;;;;;;;15.18;100.00;100331.95;105955;1259;316534;-74
2023/07/23 01:41:25;;;;;;;12.60;9.50;;;;;;;15.17;100.00;100327.36;106114;1257;71165;-74
2023/07/23 01:43:54;;;;;;;15.60;10.40;;;;;;;15.15;100.00;100327.95;106271;1257;72713;-75
2023/07/23 01:46:21;;;;;;;14.70;10.10;;;;;;;15.14;100.00;100323.98;106250;1256;61346;-74
2023/07/23 01:48:48;;;;;;;13.10;10.40;;;;;;;15.13;100.00;100323.91;106189;1257;61346;-74
2023/07/23 01:51:15;;;;;;;13.70;10.50;;;;;;;15.14;100.00;100321.22;106003;1257;72878;-75
2023/07/23 01:53:42;;;;;;;14.80;10.60;;;;;;;15.14;100.00;100320.86;105985;1258;69029;-74
2023/07/23 01:56:09;;;;;;;12.50;10.00;;;;;;;15.14;100.00;100316.91;106388;1256;73801;-75
2023/07/23 01:58:36;;;;;;;13.80;10.40;;;;;;;15.14;100.00;100309.23;106382;1256;61198;-75
2023/07/23 02:01:04;;;;;;;15.30;10.90;;;;;;;15.14;100.00;100304.36;106036;1256;61109;-75
2023/07/23 02:03:31;;;;;;;12.90;10.60;;;;;;;15.14;100.00;100306.38;106245;1260;74731;-75
2023/07/23 02:06:00;;;;;;;16.20;10.80;;;;;;;15.13;100.00;100299.90;106454;1258;69997;-76
2023/07/23 02:08:28;;;;;;;14.90;10.70;;;;;;;15.12;100.00;100304.88;106180;1256;72746;-75
2023/07/23 02:11:00;;;;;;;15.40;10.30;;;;;;;15.12;100.00;100304.74;106098;1260;62526;-75
2023/07/23 02:13:28;;;;;;;12.30;9.20;;;;;;;15.09;100.00;100300.52;106157;1257;61384;-75
2023/07/23 02:15:55;;;;;;;13.30;10.30;;;;;;;15.07;100.00;100300.00;106546;1258;73553;-74
2023/07/23 02:18:22;;;;;;;13.70;10.10;;;;;;;15.04;100.00;100296.48;106460;1260;70321;-75
2023/07/23 02:20:49;;;;;;;13.40;9.70;;;;;;;15.02;100.00;100295.83;106244;1257;71142;-74
2023/07/23 02:23:16;;;;;;;13.40;10.40;;;;;;;15.02;100.00;100292.88;106163;1256;61276;-75
2023/07/23 02:25:44;;;;;;;12.40;10.00;;;;;;;15.01;100.00;100294.73;106108;1257;61303;-76
2023/07/23 02:28:11;;;;;;;13.30;10.30;;;;;;;15.02;100.00;100288.60;106325;1257;75151;-73
2023/07/23 02:30:38;;;;;;;13.30;9.80;;;;;;;15.01;100.00;100289.97;106308;1259;71291;-73
2023/07/23 02:33:05;;;;;;;12.90;9.60;;;;;;;15.01;100.00;100284.14;106449;1256;72746;-74
2023/07/23 02:35:36;;;;;;;15.10;10.20;;;;;;;15.01;100.00;100280.23;107616;1256;61771;-74
2023/07/23 02:38:04;;;;;;;13.30;9.60;;;;;;;15.02;100.00;100278.61;108340;1256;60045;-74
2023/07/23 02:40:34;;;;;;;12.00;9.30;;;;;;;15.02;100.00;100277.66;107863;1256;74974;-74
2023/07/23 02:43:01;;;;;;;13.10;9.90;;;;;;;15.03;100.00;100273.84;106809;1257;71182;-74
2023/07/23 02:45:31;;;;;;;12.40;9.50;;;;;;;15.04;100.00;100274.20;106245;1257;73438;-74
2023/07/23 02:47:58;;;;;;;14.00;10.20;;;;;;;15.06;100.00;100273.41;106421;1256;62153;-74
2023/07/23 02:50:25;;;;;;;12.60;10.00;;;;;;;15.06;100.00;100270.87;106282;1256;61263;-75
2023/07/23 02:52:53;;;;;;;14.60;10.00;;;;;;;15.07;100.00;100264.38;106234;1256;74822;-77
2023/07/23 02:55:20;;;;;;;14.40;10.00;;;;;;;15.07;100.00;100263.22;106195;1258;71189;-77
2023/07/23 02:57:47;;;;;;;13.20;9.90;;;;;;;15.08;100.00;100258.65;107452;1256;71433;-76
2023/07/23 03:00:14;;;;;;;13.50;9.80;;;;;;;15.08;100.00;100259.05;108129;1256;61264;-74
2023/07/23 03:02:41;;;;;;;14.60;9.50;;;;;;;15.08;100.00;100258.44;108182;1257;61183;-74
2023/07/23 03:05:09;;;;;;;12.70;9.70;;;;;;;15.09;100.00;100257.09;108235;1256;74393;-74
2023/07/23 03:07:36;;;;;;;13.60;9.50;;;;;;;15.10;100.00;100257.16;108034;1257;69972;-75
2023/07/23 03:10:03;;;;;;;12.70;9.40;;;;;;;15.11;100.00;100255.31;108193;1256;70563;-73
2023/07/23 03:12:33;;;;;;;14.60;10.10;;;;;;;15.11;100.00;100253.01;106980;1256;61513;-75
2023/07/23 03:15:00;;;;;;;13.60;10.30;;;;;;;15.11;100.00;100248.15;106665;1256;61182;-74
2023/07/23 03:17:27;;;;;;;14.40;10.50;;;;;;;15.12;100.00;100251.17;106565;1257;74274;-75
2023/07/23 03:19:54;;;;;;;14.30;10.60;;;;;;;15.13;100.00;100249.46;106379;1257;70708;-74
2023/07/23 03:22:21;;;;;;;15.50;10.70;;;;;;;15.13;100.00;100253.06;106407;1256;72649;-74
2023/07/23 03:24:48;;;;;;;16.30;11.00;;;;;;;15.12;100.00;100250.16;106502;1256;61189;-73
2023/07/23 03:27:15;;;;;;;16.50;11.10;;;;;;;15.10;100.00;100237.77;106228;1262;61180;-74
2023/07/23 03:29:42;;;;;;;15.10;11.50;;;;;;;15.08;100.00;100234.94;106162;1257;74411;-75
2023/07/23 03:32:09;;;;;;;14.80;10.80;;;;;;;15.08;100.00;100229.52;106344;1256;71255;-75
2023/07/23 03:34:36;;;;;;;14.70;10.80;;;;;;;15.07;100.00;100227.70;106434;1257;71485;-76
2023/07/23 03:37:03;;;;;;;15.90;11.00;;;;;;;15.06;100.00;100224.64;107118;1256;61164;-76
2023/07/23 03:39:30;;;;;;;14.40;11.20;;;;;;;15.04;100.00;100225.34;107691;1257;61365;-74
2023/07/23 03:41:57;;;;;;;15.40;11.30;;;;;;;15.05;100.00;100223.16;108106;1255;74888;-74
2023/07/23 03:44:24;;;;;;;15.90;11.00;;;;;;;15.04;100.00;100220.38;107693;1256;70165;-74
2023/07/23 03:47:13;;;;;;;12.80;10.70;;;;;;;15.04;100.00;100217.48;108284;1256;71537;-74
2023/07/23 03:49:40;;;;;;;16.00;11.00;;;;;;;15.05;100.00;100213.09;107246;1256;61130;-73
2023/07/23 03:52:08;;;;;;;15.20;10.30;;;;;;;15.07;100.00;100217.14;106720;1256;61217;-75
2023/07/23 03:54:35;;;;;;;16.20;11.20;;;;;;;15.09;100.00;100214.34;107827;1257;74745;-75
2023/07/23 03:57:03;;;;;;;14.10;10.60;;;;;;;15.12;100.00;100210.42;107916;1258;71205;-75
2023/07/23 03:59:38;;;;;;;13.90;9.90;;;;;;;15.14;100.00;100204.81;106407;1256;72716;-75
2023/07/23 04:02:05;;;;;;;14.40;10.30;;;;;;;15.16;100.00;100195.80;107292;1256;61267;-75
2023/07/23 04:04:37;;;;;;;15.00;10.10;;;;;;;15.19;100.00;100192.36;108586;1256;60435;-75
2023/07/23 04:07:04;;;;;;;15.30;10.10;;;;;;;15.22;100.00;100189.09;106939;1257;75158;-75
2023/07/23 04:09:32;;;;;;;15.30;9.80;;;;;;;15.25;100.00;100189.90;106368;1256;71635;-74
2023/07/23 04:11:58;;;;;;;15.20;10.60;;;;;;;15.29;100.00;100182.82;107640;1257;71763;-75
2023/07/23 04:14:26;;;;;;;13.20;9.80;;;;;;;15.34;100.00;100176.74;106586;1256;62195;-74
2023/07/23 04:16:56;;;;;;;12.00;9.60;;;;;;;15.36;100.00;100178.20;106127;1263;61202;-75
2023/07/23 04:19:22;;;;;;;14.00;9.70;;;;;;;15.38;100.00;100178.27;107369;1257;73972;-76
2023/07/23 04:21:49;;;;;;;12.80;9.00;;;;;;;15.41;100.00;100178.73;108213;1256;70874;-75
2023/07/23 04:24:16;;;;;;;12.90;9.60;;;;;;;15.43;100.00;100176.83;106226;1256;72750;-75
2023/07/23 04:26:43;;;;;;;14.50;9.10;;;;;;;15.44;100.00;100175.91;106189;1257;62198;-74
2023/07/23 04:29:11;;;;;;;12.90;9.20;;;;;;;15.47;100.00;100176.78;106114;1259;61820;-76
2023/07/23 04:31:37;;;;;;;14.20;9.00;;;;;;;15.49;100.00;100170.77;106292;1256;73459;-74
2023/07/23 04:34:04;;;;;;;14.40;8.80;;;;;;;15.50;100.00;100169.68;106312;1256;70174;-75
2023/07/23 04:36:31;;;;;;;12.20;8.60;;;;;;;15.52;100.00;100166.88;106189;1256;72573;-74
2023/07/23 04:39:00;;;;;;;11.90;8.20;;;;;;;15.52;100.00;100162.84;106058;1256;61851;-73
2023/07/23 04:41:27;;;;;;;11.30;8.00;;;;;;;15.55;100.00;100155.25;106447;1258;61280;-74
2023/07/23 04:43:54;;;;;;;11.60;8.10;;;;;;;15.57;99.87;100152.02;106265;1256;72961;-74
2023/07/23 04:46:21;;;;;;;11.30;7.80;;;;;;;15.60;99.68;100156.89;106142;1260;70782;-74
2023/07/23 04:48:48;;;;;;;13.40;8.10;;;;;;;15.63;99.57;100155.38;106170;1260;72718;-73
2023/07/23 04:51:15;;;;;;;11.20;8.10;;;;;;;15.66;99.39;100154.11;106319;1257;62467;-74
2023/07/23 04:53:42;;;;;;;12.20;7.70;;;;;;;15.68;99.25;100152.61;106307;1259;61238;-73
2023/07/23 04:56:09;;;;;;;12.00;8.20;;;;;;;15.70;99.10;100150.61;106596;1257;73529;-74
2023/07/23 04:58:35;;;;;;;11.80;8.20;;;;;;;15.74;99.04;100150.89;106251;1257;71132;-73
2023/07/23 05:01:12;;;;;;;11.00;7.80;;;;;;;15.76;98.92;100150.16;106805;1256;72403;-74
2023/07/23 05:03:39;;;;;;;12.30;8.50;;;;;;;15.80;98.81;100149.55;106928;1257;61270;-74
2023/07/23 05:06:07;;;;;;;13.90;8.10;;;;;;;15.84;98.71;100152.95;107187;1256;61259;-74
2023/07/23 05:08:34;;;;;;;11.40;7.60;;;;;;;15.86;98.66;100144.21;106859;1256;74668;-76
2023/07/23 05:11:03;;;;;;;13.20;7.80;;;;;;;15.89;98.53;100139.41;107372;1258;71948;-74
2023/07/23 05:13:31;;;;;;;12.50;8.10;;;;;;;15.93;98.54;100138.61;106272;1256;71481;-74
2023/07/23 05:15:59;;;;;;;11.40;7.90;;;;;;;15.97;98.31;100136.76;106342;1262;61614;-74
2023/07/23 05:18:26;;;;;;;11.70;7.50;;;;;;;16.02;98.16;100133.98;106039;1258;60155;-74
2023/07/23 05:20:53;;;;;;;11.60;7.40;;;;;;;16.06;97.86;100132.40;106264;1259;75937;-73
2023/07/23 05:23:20;;;;;;;9.40;7.10;;;;;;;16.08;97.24;100131.49;106315;1256;70046;-74
2023/07/23 05:25:46;;;;;;;9.50;7.00;;;;;;;16.09;97.04;100132.16;106268;1256;71463;-74
2023/07/23 05:28:13;;;;;;;11.20;6.70;;;;;;;16.10;96.80;100133.47;106985;1256;61388;-75
2023/07/23 05:30:40;;;;;;;10.00;6.40;;;;;;;16.11;96.31;100131.58;106428;1258;61329;-75
2023/07/23 05:33:07;;;;;;;10.90;6.50;;;;;;;16.12;96.04;100127.86;106332;1260;74735;-75
2023/07/23 05:35:35;;;;;;;10.10;6.00;;;;;;;16.12;95.68;100118.87;107381;1256;70037;-74
2023/07/23 05:38:03;;;;;;;8.80;6.60;;;;;;;16.14;95.48;100118.23;108026;1257;73106;-74
2023/07/23 05:40:31;;;;;;;11.10;6.00;;;;;;;16.17;95.44;100115.31;106083;1256;61339;-74
2023/07/23 05:42:59;;;;;;;9.70;6.00;;;;;;;16.20;95.37;100105.35;106162;1257;62110;-74
2023/07/23 05:45:26;;;;;;;10.90;6.10;;;;;;;16.25;95.29;100100.44;106430;1257;72542;-74
2023/07/23 05:47:53;;;;;;;9.60;5.30;;;;;;;16.29;95.21;100098.30;107023;1259;70201;-74
2023/07/23 05:50:22;;;;;;;9.90;6.00;;;;;;;16.35;94.83;100095.27;106664;1258;72714;-75
2023/07/23 05:52:49;;;;;;;9.80;5.60;;;;;;;16.42;94.53;100100.23;106714;1256;62849;-75
2023/07/23 05:55:16;;;;;;;9.90;5.40;;;;;;;16.50;94.15;100099.58;108189;1256;62813;-76
2023/07/23 05:57:43;;;;;;;9.60;5.20;;;;;;;16.61;93.83;100097.35;106738;1256;74956;-75
2023/07/23 06:00:11;;;;;;;8.90;5.50;;;;;;;16.75;93.62;100094.11;106208;1256;71294;-75
2023/07/23 06:02:38;;;;;;;8.00;5.40;;;;;;;16.89;93.36;100093.24;106273;1256;72029;-75
2023/07/23 06:05:04;;;;;;;8.40;5.60;;;;;;;17.02;92.61;100083.30;106169;1256;61282;-75
2023/07/23 06:07:32;;;;;;;10.80;5.40;;;;;;;17.12;91.97;100080.77;106246;1256;61235;-75
2023/07/23 06:09:58;;;;;;;8.50;5.30;;;;;;;17.23;91.51;100075.46;106311;1256;74703;-76
2023/07/23 06:12:27;;;;;;;9.50;5.40;;;;;;;17.34;91.09;100071.17;106124;1262;69371;-76
2023/07/23 06:14:54;;;;;;;8.90;5.20;;;;;;;17.51;90.93;100062.52;106140;1256;72703;-76
2023/07/23 06:17:21;;;;;;;8.20;5.40;;;;;;;17.71;90.54;100054.30;106813;1257;61271;-76
2023/07/23 06:19:48;;;;;;;9.00;4.70;;;;;;;17.92;89.97;100055.58;107727;1256;61737;-74
2023/07/23 06:22:14;;;;;;;7.40;4.20;;;;;;;18.10;88.16;100051.86;106986;1256;73738;-76
2023/07/23 06:24:42;;;;;;;8.90;4.30;;;;;;;18.21;85.87;100045.77;107776;1256;71258;-73
2023/07/23 06:27:08;;;;;;;8.30;4.60;;;;;;;18.31;84.91;100043.48;106454;1257;71530;-76
2023/07/23 06:29:35;;;;;;;7.60;4.00;;;;;;;18.41;84.30;100041.89;106240;1256;61408;-74
2023/07/23 06:32:02;;;;;;;8.50;4.40;;;;;;;18.51;83.03;100043.55;106963;1256;61370;-74
2023/07/23 06:34:29;;;;;;;6.60;4.00;;;;;;;18.60;82.26;100039.89;107928;1256;74662;-74
2023/07/23 06:36:56;;;;;;;6.60;4.20;;;;;;;18.69;81.82;100038.36;106201;1256;71235;-74
2023/07/23 06:39:23;;;;;;;8.20;4.30;;;;;;;18.78;80.80;100036.36;106883;1257;71619;-74
2023/07/23 06:41:50;;;;;;;6.70;3.80;;;;;;;18.89;80.68;100033.16;106354;1256;61898;-74
2023/07/23 06:44:16;;;;;;;5.80;3.90;;;;;;;19.04;80.51;100034.93;106051;1256;61319;-76
2023/07/23 06:46:43;;;;;;;6.40;4.10;;;;;;;19.22;79.93;100029.26;106328;1256;73425;-75
2023/07/23 06:49:12;;;;;;;8.00;3.70;;;;;;;19.40;79.37;100028.10;106575;1257;69901;-72
2023/07/23 06:51:39;;;;;;;7.00;4.00;;;;;;;19.57;78.43;100024.98;106357;1256;71499;-72
2023/07/23 06:54:06;;;;;;;5.30;3.60;;;;;;;19.72;77.37;100022.52;106210;1256;62479;-73
2023/07/23 06:56:33;;;;;;;5.30;3.50;;;;;;;19.88;76.71;100027.66;106098;1256;61267;-72
2023/07/23 06:59:00;;;;;;;8.10;3.80;;;;;;;20.03;76.05;100024.70;106254;1257;73273;-74
2023/07/23 07:01:27;;;;;;;5.80;4.20;;;;;;;20.18;75.64;100023.29;106903;1256;72887;-74
2023/07/23 07:03:56;;;;;;;6.90;4.00;;;;;;;20.31;74.98;100018.73;107904;1257;71167;-74
2023/07/23 07:06:22;;;;;;;6.40;3.80;;;;;;;20.45;74.89;100014.70;106918;1256;59698;-74
2023/07/23 07:08:49;;;;;;;5.10;3.60;;;;;;;20.59;73.61;100015.21;107858;1256;61887;-73
2023/07/23 07:11:16;;;;;;;7.10;3.90;;;;;;;20.70;72.35;100008.60;107122;1256;74342;-74
2023/07/23 07:13:43;;;;;;;5.50;3.30;;;;;;;20.85;72.16;100004.61;107510;1257;69178;-73
2023/07/23 07:16:10;;;;;;;6.20;3.40;;;;;;;20.95;70.47;99999.87;107132;1256;71927;-73
2023/07/23 07:18:37;;;;;;;4.80;3.20;;;;;;;21.02;69.68;100003.80;106453;1256;62075;-73
2023/07/23 07:21:04;;;;;;;5.80;3.20;;;;;;;21.11;69.80;99999.42;106450;1259;61645;-73
2023/07/23 07:23:31;;;;;;;6.30;3.10;;;;;;;21.20;69.49;99995.95;106315;1256;74674;-74
2023/07/23 07:26:00;;;;;;;6.20;3.10;;;;;;;21.29;68.63;99992.59;106352;1263;71454;-72
2023/07/23 07:28:29;;;;;;;6.00;3.00;;;;;;;21.27;65.45;99996.11;107085;1257;71175;-74
2023/07/23 07:30:58;;;;;;;6.50;3.00;;;;;;;21.33;66.64;99988.90;106975;1257;61432;-73
2023/07/23 07:33:25;;;;;;;5.30;3.20;;;;;;;21.42;65.48;99983.77;107126;1257;61281;-73
2023/07/23 07:35:54;;;;;;;8.90;3.40;;;;;;;21.47;65.29;99984.92;106363;1256;74807;-73
2023/07/23 07:38:21;;;;;;;5.90;2.80;;;;;;;21.52;64.06;99984.09;107043;1259;71162;-74
2023/07/23 07:40:49;;;;;;;4.50;2.90;;;;;;;21.52;63.52;99983.38;108029;1259;72628;-73
2023/07/23 07:43:16;;;;;;;4.00;2.90;;;;;;;21.45;62.96;99980.98;107010;1263;60827;-75
2023/07/23 07:45:46;;;;;;;4.40;3.00;;;;;;;21.40;62.76;99982.19;107311;1257;61236;-74
2023/07/23 07:48:13;;;;;;;5.30;3.00;;;;;;;21.38;63.37;99982.39;107018;1256;73167;-77
2023/07/23 07:50:40;;;;;;;5.20;2.90;;;;;;;21.35;62.95;99976.21;106881;1256;70088;-76
2023/07/23 07:53:07;;;;;;;4.60;3.00;;;;;;;21.43;63.66;99977.14;106597;1257;72031;-74
2023/07/23 07:55:40;;;;;;;4.00;2.70;;;;;;;21.49;62.73;99977.87;106914;1256;62507;-72
2023/07/23 07:58:12;;;;;;;4.70;2.90;;;;;;;21.56;62.88;99975.67;106969;1256;60575;-73
2023/07/23 08:00:40;;;;;;;5.80;3.30;;;;;;;21.60;61.75;99978.55;107044;1262;76061;-74
2023/07/23 08:03:07;;;;;;;5.40;3.40;;;;;;;21.69;62.65;99968.64;107420;1256;70105;-75
2023/07/23 08:05:35;;;;;;;10.20;3.90;;;;;;;21.81;62.44;99967.27;107427;1256;72449;-75
2023/07/23 08:08:05;;;;;;;4.20;2.60;;;;;;;21.89;61.48;99966.52;106841;1256;61831;-73
2023/07/23 08:10:35;;;;;;;5.00;2.80;;;;;;;21.86;59.32;99964.19;106221;1256;61323;-74
2023/07/23 08:13:03;;;;;;;5.20;2.60;;;;;;;21.89;60.37;99961.98;107294;1256;73479;-75
2023/07/23 08:15:31;;;;;;;6.00;3.10;;;;;;;21.98;60.77;99964.05;106512;1257;71345;-76
2023/07/23 08:17:59;;;;;;;4.40;2.60;;;;;;;22.08;60.52;99960.10;106847;1259;71864;-74
2023/07/23 08:20:27;;;;;;;5.40;3.00;;;;;;;22.18;60.02;99956.07;107962;1256;61272;-74
2023/07/23 08:22:55;;;;;;;4.60;2.80;;;;;;;22.30;59.54;99960.09;106995;1257;61266;-77
2023/07/23 08:25:22;;;;;;;5.50;3.10;;;;;;;22.45;59.23;99957.70;106464;1256;73887;-74
2023/07/23 08:27:52;;;;;;;4.70;2.90;;;;;;;22.63;58.88;99959.41;106480;1257;69769;-73
2023/07/23 08:30:20;;;;;;;4.00;2.90;;;;;;;22.81;57.72;99959.10;106317;1256;70877;-72
2023/07/23 08:32:48;;;;;;;4.50;2.70;;;;;;;22.95;57.52;99958.89;106709;1258;61294;-73
2023/07/23 08:35:15;;;;;;;3.80;2.50;;;;;;;23.06;56.21;99960.48;106388;1258;61151;-73
2023/07/23 08:37:42;;;;;;;5.80;3.00;;;;;;;23.20;56.73;99962.14;106496;1256;73673;-72
2023/07/23 08:40:09;;;;;;;4.70;2.90;;;;;;;23.33;55.20;99967.30;106484;1260;70229;-73
2023/07/23 08:43:22;;;;;;;3.70;2.50;;;;;;;23.37;54.52;99962.01;106651;1259;71945;-76
2023/07/23 08:46:09;;;;;;;5.20;2.90;;;;;;;23.43;54.58;99951.27;107482;1256;61197;-75
2023/07/23 08:48:58;;;;;;;4.00;2.70;;;;;;;23.45;53.59;99949.05;106983;1256;61249;-76
2023/07/23 08:51:31;;;;;;;6.20;2.70;;;;;;;23.46;52.47;99952.45;107488;1257;73724;-75
2023/07/23 08:53:58;;;;;;;4.30;2.70;;;;;;;23.44;52.40;99947.52;107503;1261;69831;-75
2023/07/23 08:56:25;;;;;;;4.10;2.70;;;;;;;23.49;52.41;99950.15;108586;1256;71807;-74
2023/07/23 08:58:52;;;;;;;4.60;2.80;;;;;;;23.50;52.04;99948.80;108921;1256;59478;-79
2023/07/23 09:01:19;;;;;;;3.70;2.40;;;;;;;23.52;52.29;99949.00;108886;1256;61246;-76
2023/07/23 09:03:46;;;;;;;5.50;2.70;;;;;;;23.51;51.41;99949.23;108776;1256;74731;-77
2023/07/23 09:06:17;;;;;;;5.10;2.80;;;;;;;23.44;51.33;99950.57;108910;1259;69545;-76
2023/07/23 09:08:44;;;;;;;4.60;2.70;;;;;;;23.49;51.73;99949.23;108729;1256;73693;-77
2023/07/23 09:11:12;;;;;;;3.40;2.30;;;;;;;23.51;51.56;99951.49;108728;1256;60512;-74
2023/07/23 09:13:38;;;;;;;4.60;2.40;;;;;;;23.51;51.29;99948.73;108728;1256;60361;-77
2023/07/23 09:16:06;;;;;;;6.30;3.80;;;;;;;23.53;50.97;99954.63;108259;1256;75284;-75
2023/07/23 09:18:40;;;;;;;5.00;2.70;;;;;;;23.53;50.38;99946.93;108466;1256;71481;-76
2023/07/23 09:21:09;;;;;;;4.30;2.60;;;;;;;23.53;50.78;99947.15;108468;1256;73870;-75
2023/07/23 09:23:36;;;;;;;3.60;2.60;;;;;;;23.54;50.51;99950.29;108478;1256;61242;-77
2023/07/23 09:26:03;;;;;;;5.00;2.90;;;;;;;23.51;50.11;99948.67;108686;1256;59309;-77
2023/07/23 09:28:30;;;;;;;5.80;2.80;;;;;;;23.47;50.24;99949.73;108617;1256;73635;-75
2023/07/23 09:30:59;;;;;;;5.50;3.50;;;;;;;23.50;50.64;99946.25;108419;1256;70070;-73
2023/07/23 09:33:35;;;;;;;4.10;2.70;;;;;;;23.47;49.33;99948.33;108455;1256;72747;-72
2023/07/23 09:36:05;;;;;;;6.20;3.20;;;;;;;23.44;49.23;99949.42;108745;1256;59458;-75
2023/07/23 09:38:33;;;;;;;6.60;4.50;;;;;;;23.43;49.27;99952.02;108357;1256;61242;-74
2023/07/23 09:41:00;;;;;;;4.70;3.10;;;;;;;23.57;49.98;99946.38;108700;1256;73984;-74
2023/07/23 09:43:27;;;;;;;4.50;2.40;;;;;;;23.74;49.89;99951.42;108546;1256;69713;-74
2023/07/23 09:45:54;;;;;;;11.00;6.00;;;;;;;23.86;49.83;99948.70;108526;1256;72769;-75
2023/07/23 09:48:23;;;;;;;6.70;2.50;;;;;;;24.02;49.81;99943.83;108681;1258;59238;-74
2023/07/23 09:50:51;;;;;;;6.60;3.30;;;;;;;24.20;49.59;99950.95;108544;1256;59122;-74
2023/07/23 09:53:18;;;;;;;4.50;2.30;;;;;;;24.32;48.21;99950.34;108627;1256;74698;-76
2023/07/23 09:55:45;;;;;;;4.30;2.30;;;;;;;24.41;47.69;99945.77;108651;1257;71647;-74
2023/07/23 09:58:15;;;;;;;6.10;2.60;;;;;;;24.49;47.24;99947.98;108712;1256;73605;-74
2023/07/23 10:00:43;;;;;;;3.90;2.20;;;;;;;24.58;45.71;99944.17;108508;1256;60605;-74
2023/07/23 10:03:14;;;;;;;3.90;2.50;;;;;;;24.64;45.56;99944.61;108553;1256;60499;-75
2023/07/23 10:05:42;;;;;;;4.10;2.70;;;;;;;24.63;44.43;99942.71;108713;1256;74600;-75
2023/07/23 10:08:10;;;;;;;3.90;2.20;;;;;;;24.57;44.35;99940.55;108776;1257;70071;-74
2023/07/23 10:10:36;;;;;;;2.90;1.80;;;;;;;24.40;44.51;99936.89;108507;1258;73953;-73
2023/07/23 10:13:03;;;;;;;3.50;2.00;;;;;;;24.34;44.92;99932.77;108490;1256;59646;-76
2023/07/23 10:15:32;;;;;;;3.90;2.00;;;;;;;24.31;44.07;99932.96;108568;1256;59343;-73
2023/07/23 10:18:01;;;;;;;5.20;2.70;;;;;;;24.29;43.70;99929.07;108664;1256;74394;-75
2023/07/23 10:20:32;;;;;;;3.70;2.60;;;;;;;24.34;43.59;99934.11;108772;1256;70324;-76
2023/07/23 10:22:58;;;;;;;5.20;4.10;;;;;;;24.43;43.78;99937.95;108451;1256;70751;-74
2023/07/23 10:25:34;;;;;;;3.80;2.80;;;;;;;24.51;43.40;99947.16;108835;1256;59173;-72
2023/07/23 10:28:08;;;;;;;4.60;1.90;;;;;;;24.59;43.44;99946.61;108775;1257;58950;-75
2023/07/23 10:30:36;;;;;;;3.60;2.20;;;;;;;24.74;43.22;99946.29;108508;1257;75076;-73
2023/07/23 10:33:10;;;;;;;5.70;4.20;;;;;;;24.90;42.90;99947.48;108652;1263;71194;-76
2023/07/23 10:35:53;;;;;;;5.00;2.70;;;;;;;25.04;42.72;99944.86;108356;1256;70499;-74
2023/07/23 10:38:20;;;;;;;5.00;2.90;;;;;;;25.09;42.79;99947.04;108717;1256;61142;-75
2023/07/23 10:40:47;;;;;;;2.80;2.00;;;;;;;25.12;43.05;99944.61;108466;1256;61186;-75
2023/07/23 10:43:14;;;;;;;6.30;2.90;;;;;;;25.13;42.78;99949.27;108621;1256;72566;-74
2023/07/23 10:46:02;;;;;;;8.50;2.90;;;;;;;25.03;41.47;99947.16;108855;1256;70718;-74
2023/07/23 10:48:39;;;;;;;3.60;2.00;;;;;;;24.91;41.17;99948.87;108540;1256;72716;-75
2023/07/23 10:51:08;;;;;;;5.10;1.70;;;;;;;24.76;40.19;99961.67;108620;1257;60754;-74
2023/07/23 10:53:52;;;;;;;2.50;1.50;;;;;;;24.52;39.14;99955.89;108573;1258;61247;-72
2023/07/23 10:56:31;;;;;;;4.00;2.20;;;;;;;24.30;38.95;99955.95;108605;1256;74723;-75
2023/07/23 10:59:03;;;;;;;3.60;2.10;;;;;;;24.10;39.22;99950.48;108644;1256;70003;-74
2023/07/23 11:01:35;;;;;;;5.50;2.60;;;;;;;23.90;39.23;99948.36;108579;1256;73297;-75
2023/07/23 11:04:11;;;;;;;3.90;1.90;;;;;;;23.79;40.22;99957.38;108628;1256;59848;-75
2023/07/23 11:06:41;;;;;;;3.70;1.80;;;;;;;23.71;40.35;99956.91;108759;1256;59275;-74
2023/07/23 11:09:12;;;;;;;4.00;2.40;;;;;;;23.67;40.71;99962.35;108531;1256;74789;-76
2023/07/23 11:11:41;;;;;;;5.60;3.30;;;;;;;23.70;41.16;99959.84;108556;1257;70440;-76
2023/07/23 11:14:35;;;;;;;3.90;1.70;;;;;;;23.70;41.46;99963.09;108565;1256;71465;-74
2023/07/23 11:17:03;;;;;;;4.10;3.00;;;;;;;23.59;42.02;99953.61;108670;1256;60109;-75